KMNN/MNN METAR and TAF weather

Enter ICAO airport designator
Station Type Date Time Source
KMNN METAR 2019/02/22 22:53 UTC NOAA

KMNN 222253Z AUTO 00000KT 7SM CLR 03/M02 A3037 RMK AO2 SLP297 T00281022


Station Type Date Time Source
KMNN Decoded METAR 2019/02/22 22:53 UTC NOAA

MARION MUNICIPAL AIRPORT, OH, United States (KMNN) 40-37N 83-04W 301M
Feb 22, 2019 - 05:53 PM EST / 2019.02.22 2253 UTC
Wind: Calm:0
Visibility: 7 mile(s):0
Sky conditions: clear
Temperature: 37.0 F (2.8 C)
Dew Point: 28.0 F (-2.2 C)
Relative Humidity: 69%
Pressure (altimeter): 30.37 in. Hg (1028 hPa)
ob: KMNN 222253Z AUTO 00000KT 7SM CLR 03/M02 A3037 RMK AO2 SLP297 T00281022
cycle: 23

Station Type Date Time Source
KMNN TAF UTC NOAA

Error!


Example: see airport list